Latest Coastal Weather Observations for Samuel Hill

IDQ60701

Issued at 10:51 am EST Friday 21 July 2017 (issued every 10 minutes, with the page automatically refreshed every 10 minutes)

About coastal observations | Map of coastal stations | Coastal observations for QLD | Marine services | Other Formats
Station Details ID: 033308 Name: SAMUEL HILL AERO Lat: -22.74 Lon: 150.66 Height: 31.0 m
Data from the previous 72 hours. | See also: Recent months at Samuel Hill
Date/Time
EST
Temp
°C
Wind Pressure Rain since
9am
mm
Weather Cloud Vis
km
Sea
Height
m
Swell
Dir  Spd
kts
Gust
kts
hPa Trend Height
m
Period
s
Dir
21/10:30am 18.9 SSE 4 7 1019.8 - 0.0 - - 10 - - - -
21/10:00am 18.4 S 3 6 1020.1 - 0.0 - - 10 - - - -
21/09:30am 16.8 S 4 6 1020.5 - 0.0 - - 10 - - - -
21/09:00am 15.0 S 3 5 1020.6 - 0.0 - - 10 - - - -
21/08:30am 12.6 SW 5 7 1020.2 - 0.0 - - 10 - - - -
21/08:00am 10.1 WSW 3 4 1019.7 - 0.0 - - 10 - - - -
21/07:30am 7.5 W 4 7 1019.5 - 0.0 - - 10 - - - -
21/07:00am 4.9 SSW 1 7 1019.1 - 0.0 - - 10 - - - -
21/06:30am 4.0 CALM 0 0 1019.2 - 0.0 - - 10 - - - -
21/06:00am 4.1 CALM 0 0 1018.9 - 0.0 - - 10 - - - -
21/05:30am 4.3 CALM 0 0 1018.6 - 0.0 - - 10 - - - -
21/05:00am 4.4 CALM 0 0 1018.1 - 0.0 - - 10 - - - -
21/04:30am 4.5 CALM 0 0 1017.9 - 0.0 - - 10 - - - -
21/04:00am 5.0 CALM 0 0 1017.7 - 0.0 - - 10 - - - -
21/03:30am 5.0 CALM 0 0 1017.6 - 0.0 - - 10 - - - -
21/03:00am 5.4 CALM 0 0 1017.6 - 0.0 - - 10 - - - -
21/02:30am 5.5 CALM 0 0 1017.5 - 0.0 - - 10 - - - -
21/02:00am 5.7 CALM 0 0 1017.6 - 0.0 - - 10 - - - -
21/01:30am 6.0 CALM 0 0 1017.5 - 0.0 - - 10 - - - -
21/01:00am 6.2 CALM 0 0 1017.8 - 0.0 - - 10 - - - -
21/12:30am 6.5 CALM 0 0 1017.8 - 0.0 - - 10 - - - -
21/12:00am 6.8 CALM 0 0 1018.1 - 0.0 - - 10 - - - -
 
Date/Time
EST
Temp
°C
Wind Pressure Rain since
9am
mm
Weather Cloud Vis
km
Sea
Height
m
Swell
Dir  Spd
kts
Gust
kts
hPa Trend Height
m
Period
s
Dir
20/11:30pm 7.2 CALM 0 0 1018.2 - 0.0 - - 10 - - - -
20/11:00pm 7.4 CALM 0 0 1018.5 - 0.0 - - 10 - - - -
20/10:30pm 7.6 CALM 0 0 1018.5 - 0.0 - - 10 - - - -
20/10:00pm 7.8 CALM 0 0 1018.6 - 0.0 - - 10 - - - -
20/09:30pm 8.3 CALM 0 0 1018.6 - 0.0 - - 10 - - - -
20/09:00pm 8.4 NW 1 4 1018.3 - 0.0 - - 10 - - - -
20/08:30pm 8.8 CALM 0 0 1018.1 - 0.0 - - 10 - - - -
20/08:00pm 9.4 CALM 0 0 1017.9 - 0.0 - - 10 - - - -
20/07:30pm 10.5 CALM 0 0 1017.8 - 0.0 - - 10 - - - -
20/07:00pm 11.1 CALM 0 0 1017.6 - 0.0 - - 10 - - - -
20/06:30pm 11.8 NNE 3 5 1017.3 - 0.0 - - 10 - - - -
20/06:00pm 13.1 NNE 4 5 1017.1 - 0.0 - - 10 - - - -
20/05:30pm 15.7 NNE 4 5 1016.7 - 0.0 - - 10 - - - -
20/05:00pm 18.1 NNE 3 6 1016.4 - 0.0 - - 10 - - - -
20/04:30pm 19.1 NNE 7 10 1016.1 - 0.0 - - 10 - - - -
20/04:00pm 21.0 NE 5 12 1015.6 - 0.0 - - 10 - - - -
20/03:30pm 22.2 W 4 7 1015.6 - 0.0 - - 10 - - - -
20/03:00pm 21.7 ESE 4 7 1015.5 - 0.0 - - 10 - - - -
20/02:30pm 21.8 SSE 5 8 1015.7 - 0.0 - - 10 - - - -
20/02:00pm 20.9 SE 6 9 1016.1 - 0.0 - - 10 - - - -
20/01:30pm 21.0 S 6 13 1016.4 - 0.0 - - 10 - - - -
20/01:00pm 20.4 S 7 10 1016.9 - 0.0 - - 10 - - - -
20/12:30pm 19.8 S 7 12 1017.6 - 0.0 - - 10 - - - -
20/12:00pm 19.2 S 7 12 1018.2 - 0.0 - - 10 - - - -
20/11:30am 18.9 S 8 12 1018.6 - 0.0 - - 10 - - - -
20/11:00am 18.3 SSE 7 11 1019.3 - 0.0 - - 10 - - - -
20/10:30am 18.2 SSE 8 12 1019.5 - 0.0 - - 10 - - - -
20/10:00am 17.6 SSW 8 12 1019.8 - 0.0 - - 10 - - - -
20/09:30am 16.9 S 6 10 1020.0 - 0.0 - - 10 - - - -
20/09:00am 15.8 SE 3 6 1020.2 - 0.0 - - 10 - - - -
20/08:30am 13.9 CALM 0 0 1019.9 - 0.0 - - 10 - - - -
20/08:00am 11.1 CALM 0 0 1019.7 - 0.0 - - 10 - - - -
20/07:30am 7.9 CALM 0 0 1019.4 - 0.0 - - 10 - - - -
20/07:00am 6.0 NE 1 5 1019.1 - 0.0 - - 10 - - - -
20/06:30am 5.7 CALM 0 0 1018.6 - 0.0 - - 10 - - - -
20/06:00am 5.9 WNW 4 5 1018.1 - 0.0 - - 10 - - - -
20/05:30am 6.4 NW 2 4 1017.7 - 0.0 - - 10 - - - -
20/05:00am 6.2 NNW 2 4 1017.3 - 0.0 - - 10 - - - -
20/04:30am 6.4 NNE 3 5 1017.1 - 0.0 - - 10 - - - -
20/04:00am 8.3 WSW 2 6 1016.9 - 0.0 - - 10 - - - -
20/03:30am 9.2 N 3 5 1016.8 - 0.0 - - 10 - - - -
20/03:00am 9.7 SSE 5 6 1016.5 - 0.0 - - 10 - - - -
20/02:30am 8.7 ESE 5 7 1016.5 - 0.0 - - 10 - - - -
20/02:00am 10.4 ESE 5 7 1016.9 - 0.0 - - 10 - - - -
20/01:30am 10.2 SSE 4 7 1017.1 - 0.0 - - 10 - - - -
20/01:00am 13.6 S 5 9 1017.3 - 0.0 - - 10 - - - -
20/12:30am 15.1 SSW 7 10 1017.1 - 0.0 - - 10 - - - -
20/12:00am 15.2 SSW 7 9 1017.4 - 0.0 - - 10 - - - -
 
Date/Time
EST
Temp
°C
Wind Pressure Rain since
9am
mm
Weather Cloud Vis
km
Sea
Height
m
Swell
Dir  Spd
kts
Gust
kts
hPa Trend Height
m
Period
s
Dir
19/11:30pm 10.7 ENE 3 4 1017.8 - 0.0 - - 10 - - - -
19/11:00pm 11.8 ESE 3 9 1017.6 - 0.0 - - 10 - - - -
19/10:48pm 9.8 N 1 5 1017.9 - 0.0 - - 10 - - - -
19/10:30pm 15.0 SSW 6 9 1017.8 - 0.0 - - 10 - - - -
19/10:19pm 14.7 S 7 9 1017.8 - 0.0 - - 10 - - - -
19/10:00pm 9.6 WSW 3 5 1017.8 - 0.0 - - 10 - - - -
19/09:30pm 11.0 WSW 1 4 1017.7 - 0.0 - - 10 - - - -
19/09:00pm 11.2 CALM 0 0 1017.5 - 0.0 - - 10 - - - -
19/08:30pm 11.1 SSW 5 7 1017.2 - 0.0 - - 10 - - - -
19/08:00pm 11.7 S 4 5 1016.7 - 0.0 - - 10 - - - -
19/07:30pm 13.6 S 3 6 1016.1 - 0.0 - - 10 - - - -
19/07:00pm 18.1 SW 4 6 1015.4 - 0.0 - - 10 - - - -
19/06:30pm 19.7 SSW 7 10 1014.7 - 0.0 - - 10 - - - -
19/06:00pm 18.4 S 5 7 1014.1 - 0.0 - - 10 - - - -
19/05:30pm 21.3 S 4 6 1013.6 - 0.0 - - 10 - - - -
19/05:00pm 23.3 S 5 7 1013.1 - 0.0 - - 10 - - - -
19/04:30pm 24.8 SW 7 11 1012.7 - 0.0 - - 10 - - - -
19/04:00pm 25.2 SSW 9 14 1012.2 - 0.0 - - 10 - - - -
19/03:30pm 25.6 SW 7 11 1012.1 - 0.0 - - 10 - - - -
19/03:00pm 25.9 SW 9 15 1012.2 - 0.0 - - 10 - - - -
19/02:30pm 26.0 WSW 11 18 1012.1 - 0.0 - - 10 - - - -
19/02:00pm 25.9 WSW 10 15 1012.2 - 0.0 - - 10 - - - -
19/01:30pm 25.4 WSW 9 13 1012.5 - 0.0 - - 10 - - - -
19/01:00pm 25.1 WSW 10 16 1013.0 - 0.0 - - 10 - - - -
19/12:30pm 24.7 WSW 10 16 1013.5 - 0.0 - - 10 - - - -
19/12:00pm 24.4 WSW 9 15 1014.2 - 0.0 - - 10 - - - -
19/11:30am 23.8 W 11 15 1014.6 - 0.0 - - 10 - - - -
19/11:00am 24.2 WSW 10 14 1014.8 - 0.0 - - 10 - - - -
19/10:30am 23.4 WSW 9 13 1015.1 - 0.0 - Partly cloudy 10 - - - -
19/10:00am 23.2 W 7 12 1015.4 - 0.0 - Partly cloudy 10 - - - -
19/09:30am 22.0 W 8 11 1015.6 - 0.0 - - 10 - - - -
19/09:00am 20.6 W 7 10 1015.7 - 0.4 - Mostly clear 10 - - - -
19/08:30am 19.6 WNW 5 7 1015.7 - 0.4 - - 10 - - - -
19/08:00am 18.3 CALM 0 0 1015.6 - 0.4 - - 10 - - - -
19/07:30am 16.6 W 3 5 1015.7 - 0.4 - Partly cloudy - - - - -
19/07:00am 14.2 CALM 0 0 1015.3 - 0.4 - - - - - - -
19/06:50am 13.8 CALM 0 0 1015.2 - 0.4 - Partly cloudy - - - - -
19/06:30am 14.4 CALM 0 0 1015.1 - 0.4 - Partly cloudy - - - - -
19/06:00am 15.0 CALM 0 0 1015.0 - 0.4 - Partly cloudy - - - - -
19/05:30am 16.6 NNE 1 3 1014.8 - 0.4 - Cloudy - - - - -
19/05:00am 15.5 N 3 4 1014.7 - 0.4 - Partly cloudy - - - - -
19/04:49am 15.0 CALM 0 0 1014.6 - 0.4 - Partly cloudy - - - - -
19/04:42am 15.2 CALM 0 2 1014.6 - 0.4 - Partly cloudy - - - - -
19/04:30am 15.7 W 3 3 1014.6 - 0.4 - Partly cloudy - - - - -
19/04:00am 16.0 NW 1 4 1014.6 - 0.4 - Cloudy - - - - -
19/03:30am 15.8 CALM 0 0 1014.9 - 0.4 - Partly cloudy - - - - -
19/03:00am 15.7 CALM 0 0 1015.0 - 0.4 Rain Cloudy - - - - -
19/02:30am 15.4 NNE 1 3 1015.4 - 0.2 - Cloudy - - - - -
19/02:00am 15.5 CALM 0 0 1015.8 - 0.2 - Cloudy - - - - -
19/01:30am 15.6 CALM 0 0 1016.2 - 0.2 - Cloudy - - - - -
19/01:00am 14.8 CALM 0 0 1016.5 - 0.2 - Partly cloudy - - - - -
19/12:49am 14.7 CALM 0 0 1016.8 - 0.2 - Partly cloudy - - - - -
19/12:30am 14.6 CALM 0 0 1016.7 - 0.2 - - - - - - -
19/12:22am 14.4 CALM 0 0 1016.7 - 0.2 - Partly cloudy - - - - -
19/12:00am 15.0 CALM 0 1 1017.0 - 0.2 - Mostly cloudy - - - - -
 
Date/Time
EST
Temp
°C
Wind Pressure Rain since
9am
mm
Weather Cloud Vis
km
Sea
Height
m
Swell
Dir  Spd
kts
Gust
kts
hPa Trend Height
m
Period
s
Dir
18/11:30pm 15.0 CALM 0 0 1017.2 - 0.2 - Cloudy - - - - -
18/11:00pm 15.1 CALM 0 0 1017.4 - 0.2 - Cloudy 0.2 - - - -
18/10:30pm 15.4 CALM 0 0 1017.5 - 0.2 - Cloudy 0.3 - - - -
18/10:00pm 15.4 CALM 0 0 1017.7 - 0.2 - Cloudy 0.3 - - - -
18/09:30pm 14.9 CALM 0 0 1017.8 - 0.2 - Partly cloudy 0.3 - - - -
18/09:19pm 14.8 CALM 0 0 1017.7 - 0.2 - Partly cloudy 0.3 - - - -
18/09:00pm 15.1 CALM 0 0 1017.8 - 0.2 - - 0.5 - - - -
18/08:32pm 15.2 CALM 0 0 1017.6 - 0.2 - - 5 - - - -
18/08:30pm 15.2 CALM 0 0 1017.6 - 0.2 - - 10 - - - -
18/08:00pm 16.4 CALM 0 0 1017.4 - 0.2 - - 10 - - - -
18/07:42pm 16.5 CALM 0 0 1017.3 - 0.2 - - 7 - - - -
18/07:30pm 16.4 CALM 0 0 1017.4 - 0.2 - - 10 - - - -
18/07:00pm 17.8 SW 1 4 1017.2 - 0.2 - - 10 - - - -
18/06:30pm 18.7 CALM 0 0 1016.8 - 0.2 - - 10 - - - -
18/06:00pm 19.5 CALM 0 0 1016.5 - 0.2 - - 10 - - - -
18/05:30pm 20.9 ENE 4 6 1016.3 - 0.2 - - 10 - - - -
18/05:00pm 22.4 E 5 6 1016.3 - 0.2 - - 10 - - - -
18/04:30pm 23.3 E 6 8 1016.2 - 0.2 - Partly cloudy 10 - - - -
18/04:00pm 23.9 E 6 8 1016.1 - 0.2 - Partly cloudy 10 - - - -
18/03:30pm 23.3 ENE 7 10 1016.1 - 0.2 - Partly cloudy 10 - - - -
18/03:00pm 24.7 ESE 6 8 1016.0 - 0.2 - Mostly cloudy 10 - - - -
18/02:30pm 23.9 ESE 5 7 1016.2 - 0.2 - Partly cloudy 10 - - - -
18/02:00pm 24.1 ESE 7 10 1016.2 - 0.2 - Partly cloudy 10 - - - -
18/01:30pm 24.6 SSE 6 9 1016.7 - 0.2 - Partly cloudy 10 - - - -
18/01:00pm 24.8 SSE 6 9 1017.2 - 0.2 - Partly cloudy 10 - - - -
18/12:30pm 25.3 ESE 6 9 1017.8 - 0.2 - Partly cloudy 10 - - - -
18/12:00pm 23.7 SSE 3 5 1018.4 - 0.2 Recent precip. Cloudy 10 - - - -
18/11:30am 23.9 ESE 6 8 1018.8 - 0.0 - - 10 - - - -
18/11:00am 22.9 SE 7 9 1019.7 - 0.0 - Partly cloudy 10 - - - -
18/10:56am 22.7 SE 6 9 1019.7 - 0.0 - Partly cloudy 10 - - - -

Other Formats:

Comma delimited format used in spreadsheet applications
http://www.bom.gov.au/fwo/IDQ60701/IDQ60701.94370.axf

JavaScript Object Notation format (JSON) in row-major order
http://www.bom.gov.au/fwo/IDQ60701/IDQ60701.94370.json